Time;durP1;ratioP1;P1;durP2;ratioP2;P2;SDS_P1;SDS_P2;PMS_P1;PMS_P2;Temp;Humidity;BMP_temperature;BMP_pressure;BME280_temperature;BME280_humidity;BME280_pressure;Samples;Min_cycle;Max_cycle;Signal;HPM_P1;HPM_P2
2022/04/27 03:27:25;;;;;;;;;;;;;;;7.37;100.00;100074.97;6310146;22;20309;-85
2022/04/27 03:29:50;;;;;;;;;;;;;;;7.34;100.00;100081.19;6306453;22;19919;-89
2022/04/27 03:32:15;;;;;;;;;;;;;;;7.40;100.00;100080.16;6306498;22;19918;-86
2022/04/27 03:34:41;;;;;;;;;;;;;;;7.40;100.00;100075.78;6306458;22;19922;-88
2022/04/27 03:37:07;;;;;;;;;;;;;;;7.41;100.00;100080.13;6278858;22;19919;-87
2022/04/27 03:39:33;;;;;;;;;;;;;;;7.41;100.00;100077.47;6279317;22;19942;-85
2022/04/27 03:41:58;;;;;;;;;;;;;;;7.44;100.00;100073.91;6304838;22;19915;-83
2022/04/27 03:44:23;;;;;;;;;;;;;;;7.46;100.00;100078.22;6306354;22;19910;-89
2022/04/27 03:46:48;;;;;;;;;;;;;;;7.49;100.00;100081.72;6278992;22;19940;-89
2022/04/27 03:49:14;;;;;;;;;;;;;;;7.46;100.00;100086.13;6306336;22;19916;-89
2022/04/27 03:51:39;;;;;;;;;;;;;;;7.45;100.00;100094.97;6306407;22;19989;-88
2022/04/27 03:54:04;;;;;;;;;;;;;;;7.49;100.00;100092.25;6306451;22;20337;-90
2022/04/27 03:56:29;;;;;;;;;;;;;;;7.28;100.00;100091.88;6304790;22;19915;-88
2022/04/27 03:58:55;;;;;;;;;;;;;;;6.59;100.00;100107.50;6278941;22;19994;-89
2022/04/27 04:01:20;;;;;;;;;;;;;;;6.34;100.00;100099.25;6278919;22;20330;-89
2022/04/27 04:03:45;;;;;;;;;;;;;;;6.18;100.00;100090.81;6279024;22;19982;-89
2022/04/27 04:06:11;;;;;;;;;;;;;;;6.13;100.00;100098.78;6306110;22;20038;-90
2022/04/27 04:08:36;;;;;;;;;;;;;;;6.23;100.00;100099.47;6306421;22;20178;-92
2022/04/27 04:11:01;;;;;;;;;;;;;;;6.20;100.00;100104.78;6305150;22;20281;-92
2022/04/27 04:13:26;;;;;;;;;;;;;;;6.14;100.00;100104.91;6279848;22;19954;-93
2022/04/27 04:15:52;;;;;;;;;;;;;;;6.03;100.00;100106.88;6279942;22;20004;-92
2022/04/27 04:18:17;;;;;;;;;;;;;;;6.00;99.83;100105.19;6279638;22;20341;-91
2022/04/27 04:20:44;;;;;;;;;;;;;;;5.93;99.63;100107.00;6306318;22;19915;-90
2022/04/27 04:23:09;;;;;;;;;;;;;;;5.81;99.46;100120.41;6279084;22;19997;-92
2022/04/27 04:28:30;;;;;;;;;;;;;;;5.68;99.23;100121.50;6306375;22;20334;-91
2022/04/27 04:30:56;;;;;;;;;;;;;;;5.64;99.19;100131.22;6279304;22;20003;-92
2022/04/27 04:33:21;;;;;;;;;;;;;;;5.60;99.10;100124.25;6307225;22;20381;-88
2022/04/27 04:35:47;;;;;;;;;;;;;;;5.60;98.87;100129.50;6280637;22;19919;-89
2022/04/27 04:38:13;;;;;;;;;;;;;;;5.57;98.47;100135.72;6281321;22;19921;-87
2022/04/27 04:40:38;;;;;;;;;;;;;;;5.53;98.15;100141.03;6307113;22;19946;-90
2022/04/27 04:43:04;;;;;;;;;;;;;;;5.53;98.14;100139.28;6307538;22;19948;-86
2022/04/27 04:45:29;;;;;;;;;;;;;;;5.38;97.80;100135.13;6280727;22;19957;-88
2022/04/27 04:47:54;;;;;;;;;;;;;;;5.39;97.74;100142.16;6307948;22;19973;-91
2022/04/27 04:50:20;;;;;;;;;;;;;;;5.38;97.79;100148.28;6307951;22;20390;-92
2022/04/27 04:52:48;;;;;;;;;;;;;;;5.37;97.51;100149.16;6308589;22;19990;-93
2022/04/27 07:46:58;;;;;;;;;;;;;;;4.34;88.06;100258.13;6357338;22;19924;-83
2022/04/27 07:49:24;;;;;;;;;;;;;;;4.35;88.22;100250.25;6341386;22;20317;-85
2022/04/27 07:51:49;;;;;;;;;;;;;;;4.33;87.90;100266.91;6369098;22;19914;-86
2022/04/27 07:54:15;;;;;;;;;;;;;;;4.33;88.05;100262.50;6341281;22;19921;-84
2022/04/27 07:56:40;;;;;;;;;;;;;;;4.27;87.87;100261.72;6369193;22;19917;-83
2022/04/27 07:59:06;;;;;;;;;;;;;;;4.34;87.78;100263.38;6369025;22;19917;-87
2022/04/27 08:01:32;;;;;;;;;;;;;;;4.32;87.98;100260.78;6367634;22;19911;-83
2022/04/27 08:03:57;;;;;;;;;;;;;;;4.27;88.04;100261.72;6367481;22;19949;-82
2022/04/27 08:06:22;;;;;;;;;;;;;;;4.31;88.39;100263.44;6369289;22;20302;-83
2022/04/27 08:08:47;;;;;;;;;;;;;;;4.29;88.48;100263.44;6370783;22;20210;-82
2022/04/27 08:11:13;;;;;;;;;;;;;;;4.26;88.09;100270.44;6343199;22;19918;-83
2022/04/27 08:13:38;;;;;;;;;;;;;;;4.26;88.21;100262.59;6371545;22;20310;-84
2022/04/27 08:16:04;;;;;;;;;;;;;;;4.31;88.33;100266.06;6368620;22;19950;-84
2022/04/27 08:18:29;;;;;;;;;;;;;;;4.32;88.18;100262.53;6369927;22;20012;-83
2022/04/27 08:23:40;;;;;;;;;;;;;;;4.38;88.40;100261.63;6371230;22;20330;-84
2022/04/27 08:26:06;;;;;;;;;;;;;;;4.35;88.30;100265.13;6371296;22;19985;-83
2022/04/27 08:28:32;;;;;;;;;;;;;;;4.33;88.44;100266.91;6370956;22;19910;-83
2022/04/27 08:30:59;;;;;;;;;;;;;;;4.38;88.60;100277.34;6341371;22;20219;-85
2022/04/27 08:33:24;;;;;;;;;;;;;;;4.33;88.05;100266.91;6342751;22;19914;-86
2022/04/27 08:35:49;;;;;;;;;;;;;;;4.39;88.20;100268.56;6371047;22;19914;-84
2022/04/27 08:38:15;;;;;;;;;;;;;;;4.38;88.24;100272.09;6370838;22;19910;-86
2022/04/27 08:40:41;;;;;;;;;;;;;;;4.35;87.79;100276.47;6370836;22;19910;-84
2022/04/27 08:43:09;;;;;;;;;;;;;;;4.42;88.51;100261.56;6370819;22;19917;-83
2022/04/27 08:45:35;;;;;;;;;;;;;;;4.31;88.01;100274.78;6369136;22;19910;-84
2022/04/27 08:48:00;;;;;;;;;;;;;;;4.37;88.32;100273.84;6370514;22;19968;-83
2022/04/27 08:50:26;;;;;;;;;;;;;;;4.33;88.16;100270.38;6370688;22;19938;-84
2022/04/27 08:52:52;;;;;;;;;;;;;;;4.34;87.86;100271.25;6370758;22;19914;-87
2022/04/27 08:55:18;;;;;;;;;;;;;;;4.36;88.04;100267.72;6371003;22;19921;-84
2022/04/27 08:57:44;;;;;;;;;;;;;;;4.28;87.89;100269.56;6371063;22;19915;-82
2022/04/27 09:00:14;;;;;;;;;;;;;;;4.35;87.93;100275.63;6368847;22;20381;-83
2022/04/27 09:02:40;;;;;;;;;;;;;;;4.31;87.81;100274.78;6370613;22;19917;-85
2022/04/27 09:05:05;;;;;;;;;;;;;;;4.24;87.88;100273.09;6370415;22;19946;-85
2022/04/27 09:07:35;;;;;;;;;;;;;;;4.33;88.07;100267.75;6371026;22;19917;-83
2022/04/27 09:10:00;;;;;;;;;;;;;;;4.27;88.18;100266.97;6370594;22;19956;-83
2022/04/27 09:12:25;;;;;;;;;;;;;;;4.29;88.05;100273.03;6370478;22;20283;-84
2022/04/27 09:14:50;;;;;;;;;;;;;;;4.29;88.07;100278.28;6341323;22;19917;-83
2022/04/27 09:22:58;;;;;;;;;;;;;;;4.26;88.22;100273.06;6370519;22;20273;-82
2022/04/27 09:25:49;;;;;;;;;;;;;;;4.26;88.48;100275.69;6370450;22;19911;-82
2022/04/27 09:28:14;;;;;;;;;;;;;;;4.26;88.14;100273.06;6365534;22;19918;-84
2022/04/27 09:30:42;;;;;;;;;;;;;;;4.24;88.16;100269.59;6368856;22;19906;-87
2022/04/27 09:33:07;;;;;;;;;;;;;;;4.18;88.21;100263.53;6369109;22;19958;-85
2022/04/27 09:35:34;;;;;;;;;;;;;;;4.25;88.22;100273.97;6370380;22;19941;-83
2022/04/27 09:38:16;;;;;;;;;;;;;;;4.28;87.97;100274.81;6370283;22;19910;-85
2022/04/27 09:40:56;;;;;;;;;;;;;;;4.26;88.19;100273.97;6370427;22;19906;-85
2022/04/27 09:43:43;;;;;;;;;;;;;;;4.28;88.28;100269.56;6370336;22;19911;-84
2022/04/27 09:46:25;;;;;;;;;;;;;;;4.26;87.99;100265.22;6368516;22;19921;-84
2022/04/27 09:49:09;;;;;;;;;;;;;;;4.33;88.29;100269.53;6370306;22;19920;-83
2022/04/27 09:51:34;;;;;;;;;;;;;;;4.31;87.96;100276.56;6370623;22;19914;-85
2022/04/27 09:54:00;;;;;;;;;;;;;;;4.35;88.03;100270.38;6370432;22;20252;-84
2022/04/27 09:56:28;;;;;;;;;;;;;;;4.31;87.96;100268.69;6370156;22;20282;-83
2022/04/27 09:58:56;;;;;;;;;;;;;;;4.34;87.83;100269.50;6369917;22;19914;-84
2022/04/27 10:01:22;;;;;;;;;;;;;;;4.39;87.79;100265.97;6368439;22;19914;-86
2022/04/27 10:03:48;;;;;;;;;;;;;;;4.30;87.43;100273.03;6342106;22;19919;-84
2022/04/27 10:06:14;;;;;;;;;;;;;;;4.31;87.46;100266.06;6369860;22;19956;-88
2022/04/27 10:08:40;;;;;;;;;;;;;;;4.30;87.32;100265.16;6342169;22;19914;-88
2022/04/27 10:11:07;;;;;;;;;;;;;;;4.31;87.24;100264.28;6341969;22;19956;-88
2022/04/27 10:13:32;;;;;;;;;;;;;;;4.36;87.48;100261.63;6341870;22;19942;-90
2022/04/27 10:15:58;;;;;;;;;;;;;;;4.43;87.47;100260.66;6368353;22;19921;-88
2022/04/27 10:18:23;;;;;;;;;;;;;;;4.37;87.41;100268.59;6341866;22;19920;-88
2022/04/27 10:20:49;;;;;;;;;;;;;;;4.36;87.14;100266.88;6341947;22;19991;-87
2022/04/27 10:23:20;;;;;;;;;;;;;;;4.40;87.00;100265.09;6369686;22;19906;-88
2022/04/27 10:26:08;;;;;;;;;;;;;;;4.35;86.74;100263.34;6341754;22;20266;-88
2022/04/27 10:28:38;;;;;;;;;;;;;;;4.46;87.06;100263.25;6329226;22;19945;-87
2022/04/27 10:31:04;;;;;;;;;;;;;;;4.41;86.99;100269.47;6368009;22;19950;-88
2022/04/27 10:33:39;;;;;;;;;;;;;;;4.41;86.85;100265.06;6341691;22;19917;-87
2022/04/27 10:36:23;;;;;;;;;;;;;;;4.38;86.52;100254.59;6369958;22;19917;-87
2022/04/27 10:39:07;;;;;;;;;;;;;;;4.47;86.94;100262.38;6369457;22;19941;-88
2022/04/27 10:41:32;;;;;;;;;;;;;;;4.43;86.98;100252.78;6342068;22;20012;-88
2022/04/27 10:43:58;;;;;;;;;;;;;;;4.48;87.00;100252.75;6369579;22;19906;-88
2022/04/27 10:46:40;;;;;;;;;;;;;;;4.46;86.64;100250.13;6367418;22;19925;-86
2022/04/27 10:49:28;;;;;;;;;;;;;;;4.47;86.56;100245.78;6341896;22;19910;-87
2022/04/27 10:52:03;;;;;;;;;;;;;;;4.49;86.52;100257.97;6341730;22;19918;-89
2022/04/27 10:54:32;;;;;;;;;;;;;;;4.52;86.63;100255.31;6341742;22;19914;-87
2022/04/27 10:57:15;;;;;;;;;;;;;;;4.51;86.23;100245.69;6342058;22;19910;-87
2022/04/27 10:59:51;;;;;;;;;;;;;;;4.47;86.02;100249.25;6339991;22;20325;-86
2022/04/27 11:02:34;;;;;;;;;;;;;;;4.52;86.08;100254.47;6369371;22;19997;-89
2022/04/27 11:05:23;;;;;;;;;;;;;;;4.50;85.93;100248.34;6369337;22;19949;-89
2022/04/27 11:07:56;;;;;;;;;;;;;;;4.55;85.82;100252.66;6329143;22;19914;-87
2022/04/27 11:10:24;;;;;;;;;;;;;;;4.60;86.12;100251.75;6341402;22;19915;-87
2022/04/27 11:12:50;;;;;;;;;;;;;;;4.57;85.66;100247.41;6341668;22;19910;-89
2022/04/27 11:15:21;;;;;;;;;;;;;;;4.59;85.39;100250.00;6339796;22;19915;-88
2022/04/27 11:17:51;;;;;;;;;;;;;;;4.59;85.31;100252.63;6341777;22;20332;-88
2022/04/27 11:20:23;;;;;;;;;;;;;;;4.58;85.09;100250.88;6341655;22;19914;-89
2022/04/27 11:22:48;;;;;;;;;;;;;;;4.60;85.06;100247.38;6369557;22;19910;-87
2022/04/27 11:25:21;;;;;;;;;;;;;;;4.63;85.04;100249.97;6369077;22;19921;-88
2022/04/27 11:27:47;;;;;;;;;;;;;;;4.68;84.90;100249.91;6341401;22;19910;-87
2022/04/27 11:30:16;;;;;;;;;;;;;;;4.67;84.96;100246.41;6366212;22;20313;-87
2022/04/27 11:32:44;;;;;;;;;;;;;;;4.67;84.76;100249.03;6369222;22;19917;-88
2022/04/27 11:35:10;;;;;;;;;;;;;;;4.68;84.49;100247.28;6341791;22;19910;-88
2022/04/27 11:37:37;;;;;;;;;;;;;;;4.74;84.59;100247.22;6341340;22;19933;-88
2022/04/27 11:40:13;;;;;;;;;;;;;;;4.74;84.35;100247.22;6369240;22;19910;-88
2022/04/27 11:42:42;;;;;;;;;;;;;;;4.67;83.84;100241.16;6368803;22;20283;-88
2022/04/27 11:45:08;;;;;;;;;;;;;;;4.75;84.03;100248.09;6367525;22;19914;-87
2022/04/27 11:47:33;;;;;;;;;;;;;;;4.72;83.91;100246.34;6368762;22;19926;-89
2022/04/27 11:50:01;;;;;;;;;;;;;;;4.78;83.89;100248.06;6369425;22;20008;-88
2022/04/27 11:52:27;;;;;;;;;;;;;;;4.80;83.79;100252.38;6341126;22;19963;-90
2022/04/27 11:54:52;;;;;;;;;;;;;;;4.74;83.31;100247.22;6369145;22;19914;-88
2022/04/27 11:57:24;;;;;;;;;;;;;;;4.77;83.63;100252.44;6369254;22;19914;-88
2022/04/27 11:59:57;;;;;;;;;;;;;;;4.75;83.11;100246.31;6367294;22;20204;-87
2022/04/27 12:02:24;;;;;;;;;;;;;;;4.78;82.98;100238.41;6369295;22;20287;-89
2022/04/27 12:04:51;;;;;;;;;;;;;;;4.80;82.90;100247.13;6368841;22;19921;-87
2022/04/27 12:07:17;;;;;;;;;;;;;;;4.83;82.83;100241.84;6367784;22;20006;-87
2022/04/27 12:09:55;;;;;;;;;;;;;;;4.84;82.89;100233.09;6341282;22;20369;-88
2022/04/27 12:12:20;;;;;;;;;;;;;;;4.84;82.70;100247.97;6369108;22;19917;-88
2022/04/27 12:14:45;;;;;;;;;;;;;;;4.84;82.45;100240.97;6339703;22;20215;-86
2022/04/27 12:17:31;;;;;;;;;;;;;;;4.82;82.49;100229.63;6341452;22;19914;-88
2022/04/27 12:19:56;;;;;;;;;;;;;;;4.84;82.37;100233.09;6340998;22;19910;-88
2022/04/27 12:22:21;;;;;;;;;;;;;;;4.93;82.80;100232.13;6368941;22;20322;-87
2022/04/27 12:24:46;;;;;;;;;;;;;;;4.89;82.60;100231.28;6341070;22;20213;-87
2022/04/27 12:27:19;;;;;;;;;;;;;;;4.95;82.62;100229.47;6368849;22;20348;-88
2022/04/27 12:29:44;;;;;;;;;;;;;;;4.97;82.36;100222.44;6339882;22;19949;-88
2022/04/27 12:32:10;;;;;;;;;;;;;;;5.02;82.51;100215.34;6367427;22;19910;-89
2022/04/27 12:37:32;;;;;;;;;;;;;;;5.02;82.59;100221.47;6368939;22;19937;-88
2022/04/27 12:40:13;;;;;;;;;;;;;;;5.05;82.46;100210.06;6368988;22;19910;-87
2022/04/27 12:42:57;;;;;;;;;;;;;;;5.11;82.55;100211.75;6368856;22;20227;-88
2022/04/27 12:45:22;;;;;;;;;;;;;;;5.05;82.12;100210.06;6339018;22;20237;-89
2022/04/27 12:47:50;;;;;;;;;;;;;;;5.08;82.00;100215.28;6341127;22;19997;-88
2022/04/27 12:50:15;;;;;;;;;;;;;;;5.18;82.82;100216.03;6340942;22;19914;-87
2022/04/27 12:52:41;;;;;;;;;;;;;;;5.20;84.13;100209.88;6341295;22;19994;-87
2022/04/27 12:55:11;;;;;;;;;;;;;;;5.17;84.82;100215.16;6342171;22;19958;-88
2022/04/27 12:57:44;;;;;;;;;;;;;;;5.16;85.91;100212.56;6370909;22;19917;-88
2022/04/27 13:00:09;;;;;;;;;;;;;;;5.09;86.56;100211.78;6369121;22;19914;-86
2022/04/27 13:02:35;;;;;;;;;;;;;;;5.02;86.63;100210.97;6342695;22;19910;-87
2022/04/27 13:05:00;;;;;;;;;;;;;;;4.99;87.03;100213.63;6342620;22;19921;-88
2022/04/27 13:07:25;;;;;;;;;;;;;;;5.01;88.07;100208.34;6343039;22;19911;-88
2022/04/27 13:12:36;;;;;;;;;;;;;;;5.35;92.16;100200.88;6370479;22;19963;-89
2022/04/27 13:15:02;;;;;;;;;;;;;;;5.53;95.14;100201.50;6368820;22;19915;-88
2022/04/27 13:17:27;;;;;;;;;;;;;;;5.77;98.18;100194.97;6370808;22;19949;-86
2022/04/27 13:19:52;;;;;;;;;;;;;;;5.96;100.00;100190.28;6370373;22;19914;-88
2022/04/27 13:22:18;;;;;;;;;;;;;;;6.08;100.00;100189.19;6342606;22;19911;-90
2022/04/27 13:24:43;;;;;;;;;;;;;;;6.17;100.00;100191.69;6342712;22;20381;-86
2022/04/27 13:27:08;;;;;;;;;;;;;;;6.24;100.00;100180.16;6342517;22;19959;-89
2022/04/27 13:29:33;;;;;;;;;;;;;;;6.29;100.00;100162.50;6341676;22;20244;-89
2022/04/27 13:31:59;;;;;;;;;;;;;;;6.35;100.00;100167.66;6369292;22;20080;-87
2022/04/27 13:34:24;;;;;;;;;;;;;;;6.45;100.00;100173.59;6370193;22;19914;-86
2022/04/27 13:36:49;;;;;;;;;;;;;;;6.52;100.00;100180.47;6342385;22;19914;-90
2022/04/27 13:39:15;;;;;;;;;;;;;;;6.54;100.00;100177.81;6370586;22;19917;-87
2022/04/27 13:41:40;;;;;;;;;;;;;;;6.56;100.00;100173.41;6342336;22;19910;-93
2022/04/27 13:44:05;;;;;;;;;;;;;;;6.60;100.00;100175.06;6370142;22;19915;-88
2022/04/27 13:46:31;;;;;;;;;;;;;;;6.61;100.00;100166.25;6340637;22;19911;-90
2022/04/27 13:48:56;;;;;;;;;;;;;;;6.65;100.00;100165.31;6342298;22;19945;-86
2022/04/27 13:51:22;;;;;;;;;;;;;;;6.68;100.00;100159.09;6342835;22;19963;-89
2022/04/27 13:53:47;;;;;;;;;;;;;;;6.73;100.00;100163.38;6370056;22;20279;-86
2022/04/27 13:56:12;;;;;;;;;;;;;;;6.77;100.00;100171.22;6342292;22;20424;-86
2022/04/27 13:58:38;;;;;;;;;;;;;;;6.78;100.00;100167.66;6342092;22;19910;-87
2022/04/27 14:01:04;;;;;;;;;;;;;;;6.82;100.00;100172.84;6340735;22;19919;-87
2022/04/27 14:03:29;;;;;;;;;;;;;;;6.86;100.00;100179.78;6370083;22;20253;-91
2022/04/27 14:05:55;;;;;;;;;;;;;;;6.90;100.00;100175.31;6341403;22;19914;-88
2022/04/27 14:08:20;;;;;;;;;;;;;;;6.93;100.00;100169.97;6342494;22;19911;-89
2022/04/27 14:10:45;;;;;;;;;;;;;;;6.97;100.00;100166.38;6341997;22;19914;-88
2022/04/27 14:13:13;;;;;;;;;;;;;;;6.97;100.00;100171.63;6342193;22;20330;-90
2022/04/27 14:15:39;;;;;;;;;;;;;;;7.00;100.00;100168.06;6340181;22;19918;-87
2022/04/27 14:18:10;;;;;;;;;;;;;;;7.07;100.00;100167.91;6342333;22;19914;-87
2022/04/27 14:20:39;;;;;;;;;;;;;;;7.04;100.00;100175.03;6342043;22;19945;-89
2022/04/27 14:23:04;;;;;;;;;;;;;;;7.11;100.00;100173.13;6341958;22;19946;-90
2022/04/27 14:25:30;;;;;;;;;;;;;;;7.14;100.00;100176.53;6369792;22;19917;-86
2022/04/27 14:27:55;;;;;;;;;;;;;;;7.16;100.00;100172.09;6341940;22;19918;-86
2022/04/27 14:30:20;;;;;;;;;;;;;;;6.65;100.00;100165.31;6340684;22;19911;-90
2022/04/27 14:32:48;;;;;;;;;;;;;;;6.09;100.00;100167.28;6369757;22;19914;-86
2022/04/27 14:35:13;;;;;;;;;;;;;;;5.99;100.00;100170.06;6342298;22;19914;-86
2022/04/27 14:37:39;;;;;;;;;;;;;;;5.90;100.00;100170.19;6342215;22;19911;-91
2022/04/27 14:40:04;;;;;;;;;;;;;;;5.87;100.00;100170.28;6369701;22;19981;-88
2022/04/27 14:42:31;;;;;;;;;;;;;;;5.81;100.00;100159.84;6341795;22;19914;-88
2022/04/27 14:44:56;;;;;;;;;;;;;;;5.67;100.00;100161.84;6340362;22;20200;-86
2022/04/27 14:47:21;;;;;;;;;;;;;;;5.65;99.87;100154.00;6341778;22;20271;-88
2022/04/27 14:49:46;;;;;;;;;;;;;;;5.58;99.18;100153.19;6341690;22;19914;-86
2022/04/27 14:52:13;;;;;;;;;;;;;;;5.50;98.57;100149.84;6341789;22;20347;-86
2022/04/27 14:54:38;;;;;;;;;;;;;;;5.52;98.46;100162.94;6341679;22;19937;-90
2022/04/27 14:57:04;;;;;;;;;;;;;;;5.39;98.13;100155.28;6369452;22;20318;-88
2022/04/27 14:59:29;;;;;;;;;;;;;;;5.40;98.15;100167.50;6367973;22;19910;-87
2022/04/27 15:01:55;;;;;;;;;;;;;;;5.39;97.48;100170.16;6368109;22;19910;-90
2022/04/27 15:04:20;;;;;;;;;;;;;;;5.41;97.51;100168.41;6341580;22;19970;-89
2022/04/27 15:06:46;;;;;;;;;;;;;;;5.40;96.81;100172.75;6341367;22;19914;-89
2022/04/27 15:09:11;;;;;;;;;;;;;;;5.38;96.08;100168.44;6369344;22;19917;-89
2022/04/27 15:11:36;;;;;;;;;;;;;;;5.37;95.45;100169.31;6369278;22;19910;-89
2022/04/27 15:14:01;;;;;;;;;;;;;;;5.32;94.88;100166.78;6341283;22;19921;-90
2022/04/27 15:16:28;;;;;;;;;;;;;;;5.28;94.44;100167.69;6367985;22;19989;-89
2022/04/27 15:18:54;;;;;;;;;;;;;;;5.22;93.82;100160.78;6341122;22;20592;-86
2022/04/27 15:24:04;;;;;;;;;;;;;;;5.20;92.90;100157.31;6369440;22;20292;-88
2022/04/27 15:29:13;;;;;;;;;;;;;;;5.23;92.07;100153.75;6369495;22;20341;-87
2022/04/27 15:31:38;;;;;;;;;;;;;;;5.12;91.87;100155.69;6339858;22;19910;-88
2022/04/27 15:34:03;;;;;;;;;;;;;;;5.16;91.43;100160.00;6342017;22;19918;-85
2022/04/27 15:36:29;;;;;;;;;;;;;;;5.13;90.95;100149.56;6369657;22;20325;-87
2022/04/27 15:38:54;;;;;;;;;;;;;;;5.05;90.91;100153.13;6341627;22;19922;-88
2022/04/27 15:41:19;;;;;;;;;;;;;;;5.01;90.49;100153.19;6370370;22;19917;-91
2022/04/27 15:43:45;;;;;;;;;;;;;;;5.01;90.35;100155.84;6369362;22;20333;-86
2022/04/27 15:46:10;;;;;;;;;;;;;;;4.96;90.42;100158.53;6340739;22;19911;-90
2022/04/27 15:48:35;;;;;;;;;;;;;;;5.02;90.33;100173.34;6336337;22;19914;-86
2022/04/27 15:51:02;;;;;;;;;;;;;;;5.04;90.43;100171.56;6337721;22;19918;-92
2022/04/27 15:53:27;;;;;;;;;;;;;;;5.08;90.13;100163.59;6338405;22;19986;-88
2022/04/27 15:55:53;;;;;;;;;;;;;;;5.01;89.68;100164.59;6337306;22;19950;-90
2022/04/27 15:58:18;;;;;;;;;;;;;;;4.95;89.41;100163.81;6337702;22;19917;-90
2022/04/27 16:00:46;;;;;;;;;;;;;;;5.00;89.33;100169.88;6336174;22;19914;-88
2022/04/27 16:03:12;;;;;;;;;;;;;;;5.01;89.43;100168.97;6336174;22;19917;-91
2022/04/27 16:05:37;;;;;;;;;;;;;;;4.94;89.00;100164.69;6337043;22;19950;-92
2022/04/27 16:08:03;;;;;;;;;;;;;;;5.00;88.75;100175.13;6336422;22;20215;-86
2022/04/27 16:10:28;;;;;;;;;;;;;;;4.90;88.61;100169.13;6336302;22;19914;-90
2022/04/27 16:12:53;;;;;;;;;;;;;;;4.96;88.48;100176.91;6337497;22;19922;-85
2022/04/27 16:15:20;;;;;;;;;;;;;;;4.87;88.21;100177.91;6335478;22;19911;-91
2022/04/27 16:17:45;;;;;;;;;;;;;;;4.89;88.36;100167.38;6335954;22;19914;-88
2022/04/27 16:20:11;;;;;;;;;;;;;;;5.01;88.41;100171.59;6337615;22;19933;-86
2022/04/27 16:25:20;;;;;;;;;;;;;;;4.85;87.80;100182.31;6337485;22;19918;-84
2022/04/27 16:27:45;;;;;;;;;;;;;;;4.84;87.87;100175.31;6337434;22;19915;-88
2022/04/27 16:30:11;;;;;;;;;;;;;;;4.87;87.67;100175.28;6337622;22;19914;-84
2022/04/27 16:32:36;;;;;;;;;;;;;;;4.86;87.44;100178.78;6339233;22;20227;-86
2022/04/27 16:35:02;;;;;;;;;;;;;;;4.82;87.57;100174.47;6337487;22;19910;-90
2022/04/27 16:37:27;;;;;;;;;;;;;;;4.77;87.38;100168.44;6339054;22;19911;-85
2022/04/27 16:39:52;;;;;;;;;;;;;;;4.73;87.57;100171.97;6338958;22;19997;-85
2022/04/27 16:42:18;;;;;;;;;;;;;;;4.83;87.71;100172.72;6337667;22;20313;-90
2022/04/27 16:44:45;;;;;;;;;;;;;;;4.80;87.51;100181.50;6337874;22;19957;-83
2022/04/27 16:47:10;;;;;;;;;;;;;;;4.70;87.93;100177.25;6349086;22;19918;-83
2022/04/27 16:49:35;;;;;;;;;;;;;;;4.80;88.07;100176.25;6343316;22;19920;-84
2022/04/27 16:52:00;;;;;;;;;;;;;;;4.83;88.07;100181.44;6370670;22;19935;-84
2022/04/27 16:54:26;;;;;;;;;;;;;;;4.74;88.10;100184.22;6370817;22;19920;-84
2022/04/27 16:56:51;;;;;;;;;;;;;;;4.72;87.54;100183.34;6370640;22;19917;-84
2022/04/27 16:59:16;;;;;;;;;;;;;;;4.78;87.65;100185.03;6370784;22;19967;-84
2022/04/27 17:01:42;;;;;;;;;;;;;;;4.75;87.71;100191.19;6369576;22;19933;-86
2022/04/27 17:04:07;;;;;;;;;;;;;;;4.67;87.74;100195.66;6343017;22;19921;-82
2022/04/27 17:06:33;;;;;;;;;;;;;;;4.71;87.51;100189.50;6370530;22;20044;-83
2022/04/27 17:08:58;;;;;;;;;;;;;;;4.76;87.35;100192.06;6370601;22;19921;-83
2022/04/27 17:11:25;;;;;;;;;;;;;;;4.65;86.96;100194.81;6370710;22;19952;-83
2022/04/27 17:13:51;;;;;;;;;;;;;;;4.70;86.97;100196.50;6370516;22;20314;-84
2022/04/27 17:16:16;;;;;;;;;;;;;;;4.64;87.18;100195.69;6340954;22;19917;-85
2022/04/27 17:18:43;;;;;;;;;;;;;;;4.64;87.28;100193.97;6370754;22;19954;-84
2022/04/27 17:21:08;;;;;;;;;;;;;;;4.59;87.33;100190.50;6342523;22;19979;-84
2022/04/27 17:23:34;;;;;;;;;;;;;;;4.57;87.55;100186.19;6370395;22;20325;-90
2022/04/27 17:28:43;;;;;;;;;;;;;;;4.61;87.40;100190.50;6370564;22;20353;-86
2022/04/27 17:31:09;;;;;;;;;;;;;;;4.60;87.31;100186.16;6368738;22;19914;-87
2022/04/27 17:33:34;;;;;;;;;;;;;;;4.55;87.38;100188.81;6370410;22;19910;-84
2022/04/27 17:35:59;;;;;;;;;;;;;;;4.61;87.57;100194.00;6342582;22;20370;-87
2022/04/27 17:38:25;;;;;;;;;;;;;;;4.63;87.37;100186.13;6370379;22;19917;-86
2022/04/27 17:40:50;;;;;;;;;;;;;;;4.65;87.31;100193.06;6370186;22;19921;-84
2022/04/27 17:43:15;;;;;;;;;;;;;;;4.65;87.24;100194.81;6370681;22;20313;-84
2022/04/27 17:45:41;;;;;;;;;;;;;;;4.57;87.04;100200.16;6368549;22;19914;-85
2022/04/27 17:48:07;;;;;;;;;;;;;;;4.54;87.28;100202.81;6336718;22;19918;-84
2022/04/27 17:50:32;;;;;;;;;;;;;;;4.57;87.17;100212.44;6336838;22;19968;-84
2022/04/27 17:52:58;;;;;;;;;;;;;;;4.57;86.83;100209.81;6336843;22;19911;-87
2022/04/27 17:55:24;;;;;;;;;;;;;;;4.58;86.86;100216.78;6338930;22;20262;-88
2022/04/27 17:57:49;;;;;;;;;;;;;;;4.58;86.80;100222.03;6338405;22;19918;-85
2022/04/27 18:00:15;;;;;;;;;;;;;;;4.52;86.93;100226.47;6335208;22;19911;-87
2022/04/27 18:02:41;;;;;;;;;;;;;;;4.50;86.92;100229.97;6338534;22;19911;-85
2022/04/27 18:05:08;;;;;;;;;;;;;;;4.57;87.10;100233.44;6336806;22;19910;-88
2022/04/27 18:07:33;;;;;;;;;;;;;;;4.54;86.77;100245.66;6338383;22;19922;-85
2022/04/27 18:09:58;;;;;;;;;;;;;;;4.52;86.82;100247.44;6336488;22;19907;-90
2022/04/27 18:12:24;;;;;;;;;;;;;;;4.50;86.89;100238.72;6336790;22;19915;-85
2022/04/27 18:14:49;;;;;;;;;;;;;;;4.48;86.89;100248.38;6336744;22;19906;-85
2022/04/27 18:17:15;;;;;;;;;;;;;;;4.49;86.88;100247.47;6338720;22;20254;-86
2022/04/27 18:19:40;;;;;;;;;;;;;;;4.50;86.92;100241.34;6338216;22;19918;-86
2022/04/27 18:22:06;;;;;;;;;;;;;;;4.48;86.95;100251.00;6338395;22;19953;-85
2022/04/27 18:24:32;;;;;;;;;;;;;;;4.41;86.93;100249.31;6338563;22;20274;-84
2022/04/27 18:26:58;;;;;;;;;;;;;;;4.46;87.01;100247.50;6336555;22;20239;-84
2022/04/27 18:29:24;;;;;;;;;;;;;;;4.43;86.89;100237.03;6338425;22;19918;-87
2022/04/27 18:31:50;;;;;;;;;;;;;;;4.41;87.07;100244.06;6336828;22;19918;-85
2022/04/27 18:34:15;;;;;;;;;;;;;;;4.44;86.98;100243.19;6338210;22;19911;-86
2022/04/27 18:36:40;;;;;;;;;;;;;;;4.46;86.97;100249.28;6338775;22;19911;-87
2022/04/27 18:39:06;;;;;;;;;;;;;;;4.38;86.72;100249.34;6336696;22;20056;-86
2022/04/27 18:41:31;;;;;;;;;;;;;;;4.43;86.96;100247.53;6337098;22;20238;-89
2022/04/27 18:52:08;;;;;;;;;;;;;;;4.41;87.04;100265.06;6369538;22;19921;-84
2022/04/27 18:54:34;;;;;;;;;;;;;;;4.41;86.81;100270.31;6342192;22;19915;-84
2022/04/27 18:56:59;;;;;;;;;;;;;;;4.42;86.79;100276.41;6369457;22;20009;-85
2022/04/27 18:59:24;;;;;;;;;;;;;;;4.41;86.93;100277.31;6369363;22;19963;-83
2022/04/27 19:01:50;;;;;;;;;;;;;;;4.39;86.93;100282.59;6339814;22;19914;-84
2022/04/27 19:04:15;;;;;;;;;;;;;;;4.34;86.98;100279.13;6369463;22;19914;-83
2022/04/27 19:06:40;;;;;;;;;;;;;;;4.40;86.95;100280.81;6369355;22;20332;-86
2022/04/27 19:09:05;;;;;;;;;;;;;;;4.27;86.99;100283.56;6369430;22;20001;-84
2022/04/27 19:11:31;;;;;;;;;;;;;;;4.39;87.17;100282.59;6341540;22;19914;-84
2022/04/27 19:13:56;;;;;;;;;;;;;;;4.41;87.01;100285.19;6369282;22;19914;-84
2022/04/27 19:16:21;;;;;;;;;;;;;;;4.39;86.79;100292.19;6367644;22;19914;-86
2022/04/27 19:18:48;;;;;;;;;;;;;;;4.39;86.73;100300.97;6369559;22;19949;-86
2022/04/27 19:21:13;;;;;;;;;;;;;;;4.44;86.37;100300.91;6369621;22;19910;-89
2022/04/27 19:23:40;;;;;;;;;;;;;;;4.39;86.13;100297.44;6369691;22;19910;-91
2022/04/27 19:26:05;;;;;;;;;;;;;;;4.37;86.10;100302.69;6341614;22;20329;-84
2022/04/27 19:28:34;;;;;;;;;;;;;;;4.38;86.20;100303.59;6369083;22;19914;-85
2022/04/27 19:31:00;;;;;;;;;;;;;;;4.38;86.14;100309.69;6339760;22;19967;-90
2022/04/27 19:33:26;;;;;;;;;;;;;;;4.39;85.89;100305.31;6341707;22;19914;-85
2022/04/27 19:35:52;;;;;;;;;;;;;;;4.36;86.11;100308.84;6341344;22;20322;-89
2022/04/27 19:38:17;;;;;;;;;;;;;;;4.27;86.08;100306.31;6369165;22;19914;-90